createdAt,value
2019-02-28T00:04:11.759Z,0.00
2019-02-28T00:08:11.717Z,0.00
2019-02-28T00:09:11.705Z,0.00
2019-02-28T00:23:12.220Z,0.00
2019-02-28T00:56:11.297Z,0.00
2019-02-28T01:15:11.018Z,0.00
2019-02-28T01:22:12.736Z,0.00
2019-02-28T01:26:11.727Z,0.00
2019-02-28T01:27:11.451Z,0.00
2019-02-28T01:30:11.052Z,0.00
2019-02-28T01:31:11.673Z,0.00
2019-02-28T01:32:15.282Z,0.00
2019-02-28T01:34:10.862Z,0.00
2019-02-28T01:35:10.888Z,0.00
2019-02-28T01:36:12.299Z,4.00
2019-02-28T01:37:10.862Z,4.00
2019-02-28T01:38:10.853Z,4.00
2019-02-28T01:39:10.843Z,4.00
2019-02-28T01:40:10.832Z,4.00
2019-02-28T01:41:11.164Z,8.00
2019-02-28T01:42:10.813Z,8.00
2019-02-28T01:43:10.802Z,8.00
2019-02-28T01:44:10.791Z,12.00
2019-02-28T01:45:10.995Z,12.00
2019-02-28T01:46:10.765Z,16.00
2019-02-28T01:47:10.759Z,16.00
2019-02-28T01:48:10.800Z,20.00
2019-02-28T01:49:10.740Z,24.00
2019-02-28T01:50:10.731Z,28.00
2019-02-28T01:51:10.624Z,32.00
2019-02-28T01:52:10.825Z,36.00
2019-02-28T01:53:10.699Z,44.00
2019-02-28T01:54:10.691Z,48.00
2019-02-28T01:55:10.588Z,56.00
2019-02-28T01:56:10.667Z,68.00
2019-02-28T01:57:10.563Z,76.00
2019-02-28T01:58:10.638Z,88.00
2019-02-28T01:59:10.633Z,96.00
2019-02-28T02:00:10.621Z,112.00
2019-02-28T02:01:10.610Z,128.00
2019-02-28T02:02:10.607Z,144.00
2019-02-28T02:03:10.640Z,164.00
2019-02-28T02:04:12.537Z,192.00
2019-02-28T02:05:10.571Z,216.00
2019-02-28T02:06:10.559Z,248.00
2019-02-28T02:07:10.552Z,288.00
2019-02-28T02:08:10.539Z,332.00
2019-02-28T02:09:10.975Z,372.00
2019-02-28T02:10:10.517Z,412.00
2019-02-28T02:11:10.505Z,452.00
2019-02-28T02:12:10.491Z,520.00
2019-02-28T02:13:10.481Z,580.00
2019-02-28T02:14:10.995Z,608.00
2019-02-28T02:15:10.464Z,672.00
2019-02-28T02:16:10.451Z,828.00
2019-02-28T02:17:10.444Z,940.00
2019-02-28T02:18:10.431Z,980.00
2019-02-28T02:19:10.418Z,1120.00
2019-02-28T02:20:10.411Z,1180.00
2019-02-28T02:21:10.401Z,1016.00
2019-02-28T02:22:10.409Z,812.00
2019-02-28T02:23:10.375Z,816.00
2019-02-28T02:24:10.365Z,848.00
2019-02-28T02:25:10.358Z,884.00
2019-02-28T02:26:11.264Z,924.00
2019-02-28T02:27:10.335Z,964.00
2019-02-28T02:28:10.326Z,1008.00
2019-02-28T02:29:10.312Z,1048.00
2019-02-28T02:30:15.293Z,1088.00
2019-02-28T02:31:10.296Z,1132.00
2019-02-28T02:32:10.287Z,1172.00
2019-02-28T02:33:14.310Z,1216.00
2019-02-28T02:34:10.263Z,1256.00
2019-02-28T02:35:10.255Z,1296.00
2019-02-28T02:36:10.249Z,1340.00
2019-02-28T02:37:10.238Z,1380.00
2019-02-28T02:38:10.221Z,1420.00
2019-02-28T02:39:16.448Z,1468.00
2019-02-28T02:40:11.300Z,1508.00
2019-02-28T02:41:10.189Z,1552.00
2019-02-28T02:42:11.543Z,1592.00
2019-02-28T02:43:10.171Z,1636.00
2019-02-28T02:44:10.158Z,1696.00
2019-02-28T02:45:10.144Z,1924.00
2019-02-28T02:46:10.144Z,2120.00
2019-02-28T02:47:10.126Z,2120.00
2019-02-28T02:48:10.117Z,1960.00
2019-02-28T02:49:10.106Z,1896.00
2019-02-28T02:50:10.093Z,1908.00
2019-02-28T02:51:11.023Z,1936.00
2019-02-28T02:52:10.076Z,1972.00
2019-02-28T02:53:10.059Z,2008.00
2019-02-28T02:54:10.050Z,2040.00
2019-02-28T02:55:10.046Z,2076.00
2019-02-28T02:56:10.029Z,2116.00
2019-02-28T02:57:14.055Z,2156.00
2019-02-28T02:58:10.059Z,2204.00
2019-02-28T02:59:09.999Z,2260.00
2019-02-28T03:00:13.631Z,2308.00
2019-02-28T03:01:09.976Z,2352.00
2019-02-28T03:02:09.965Z,2400.00
2019-02-28T03:03:09.952Z,2452.00
2019-02-28T03:04:09.943Z,2504.00
2019-02-28T03:05:09.935Z,2548.00
2019-02-28T03:06:13.856Z,2596.00
2019-02-28T03:07:09.913Z,2652.00
2019-02-28T03:08:09.904Z,2720.00
2019-02-28T03:09:11.070Z,2816.00
2019-02-28T03:10:09.880Z,2936.00
2019-02-28T03:11:09.882Z,3060.00
2019-02-28T03:12:09.878Z,3196.00
2019-02-28T03:13:09.863Z,3320.00
2019-02-28T03:14:09.850Z,3492.00
2019-02-28T03:15:09.846Z,3636.00
2019-02-28T03:16:09.855Z,3756.00
2019-02-28T03:17:11.830Z,3884.00
2019-02-28T03:18:09.809Z,3880.00
2019-02-28T03:19:09.802Z,4012.00
2019-02-28T03:20:09.790Z,4024.00
2019-02-28T03:21:09.775Z,3992.00
2019-02-28T03:22:09.767Z,3888.00
2019-02-28T03:23:09.754Z,3800.00
2019-02-28T03:24:14.590Z,3676.00
2019-02-28T03:25:10.839Z,3584.00
2019-02-28T03:26:09.719Z,3504.00
2019-02-28T03:27:09.710Z,3448.00
2019-02-28T03:28:09.699Z,3332.00
2019-02-28T03:29:09.697Z,3264.00
2019-02-28T03:30:09.683Z,3232.00
2019-02-28T03:31:14.462Z,3232.00
2019-02-28T03:32:09.676Z,3312.00
2019-02-28T03:33:23.385Z,3388.00
2019-02-28T03:34:13.770Z,3420.00
2019-02-28T03:35:09.626Z,3448.00
2019-02-28T03:36:09.700Z,3480.00
2019-02-28T03:37:09.604Z,3524.00
2019-02-28T03:38:11.607Z,3580.00
2019-02-28T03:39:09.579Z,3652.00
2019-02-28T03:40:09.600Z,3716.00
2019-02-28T03:41:16.362Z,3784.00
2019-02-28T03:42:10.657Z,3852.00
2019-02-28T03:43:09.539Z,3936.00
2019-02-28T03:44:09.542Z,4040.00
2019-02-28T03:45:09.517Z,4168.00
2019-02-28T03:46:10.201Z,4328.00
2019-02-28T03:47:09.510Z,4520.00
2019-02-28T03:48:09.486Z,4720.00
2019-02-28T03:49:11.731Z,4940.00
2019-02-28T03:50:09.468Z,5180.00
2019-02-28T03:51:09.453Z,5404.00
2019-02-28T03:52:09.444Z,5704.00
2019-02-28T03:53:09.430Z,6036.00
2019-02-28T03:54:09.423Z,6188.00
2019-02-28T03:55:09.414Z,6476.00
2019-02-28T03:56:14.298Z,6644.00
2019-02-28T03:57:10.492Z,6740.00
2019-02-28T03:58:09.479Z,6680.00
2019-02-28T03:59:09.467Z,6524.00
2019-02-28T04:00:09.359Z,6416.00
2019-02-28T04:01:10.304Z,6340.00
2019-02-28T04:02:09.337Z,6248.00
2019-02-28T04:03:09.326Z,6164.00
2019-02-28T04:04:12.195Z,6052.00
2019-02-28T04:05:09.304Z,5932.00
2019-02-28T04:06:09.309Z,5796.00
2019-02-28T04:07:15.385Z,5680.00
2019-02-28T04:08:10.391Z,5592.00
2019-02-28T04:09:09.278Z,5528.00
2019-02-28T04:10:09.257Z,5460.00
2019-02-28T04:11:09.245Z,5416.00
2019-02-28T04:12:09.246Z,5356.00
2019-02-28T04:13:09.222Z,5340.00
2019-02-28T04:14:09.212Z,5348.00
2019-02-28T04:15:10.158Z,5380.00
2019-02-28T04:16:10.076Z,5412.00
2019-02-28T04:17:09.195Z,5484.00
2019-02-28T04:18:09.178Z,5568.00
2019-02-28T04:19:09.160Z,5652.00
2019-02-28T04:20:09.155Z,5700.00
2019-02-28T04:21:10.304Z,5812.00
2019-02-28T04:22:09.128Z,5976.00
2019-02-28T04:23:09.119Z,6064.00
2019-02-28T04:24:13.867Z,6172.00
2019-02-28T04:25:09.098Z,6244.00
2019-02-28T04:26:09.105Z,6356.00
2019-02-28T04:27:09.088Z,6452.00
2019-02-28T04:28:09.072Z,6492.00
2019-02-28T04:29:08.964Z,6584.00
2019-02-28T04:30:09.049Z,6640.00
2019-02-28T04:31:09.047Z,6680.00
2019-02-28T04:32:08.934Z,6692.00
2019-02-28T04:33:09.017Z,6676.00
2019-02-28T04:34:12.939Z,6644.00
2019-02-28T04:35:08.903Z,6648.00
2019-02-28T04:36:08.894Z,6672.00
2019-02-28T04:37:09.729Z,6652.00
2019-02-28T04:38:08.965Z,6660.00
2019-02-28T04:39:08.859Z,6684.00
2019-02-28T04:40:08.849Z,6764.00
2019-02-28T04:41:08.840Z,6908.00
2019-02-28T04:42:08.925Z,6892.00
2019-02-28T04:43:10.065Z,6728.00
2019-02-28T04:44:08.902Z,6524.00
2019-02-28T04:45:08.890Z,6340.00
2019-02-28T04:46:08.790Z,6204.00
2019-02-28T04:47:08.779Z,6144.00
2019-02-28T04:48:13.637Z,6148.00
2019-02-28T04:49:08.850Z,6208.00
2019-02-28T04:50:08.750Z,6248.00
2019-02-28T04:51:08.736Z,6300.00
2019-02-28T04:52:11.727Z,6380.00
2019-02-28T04:53:08.717Z,6444.00
2019-02-28T04:54:08.703Z,6420.00
2019-02-28T04:55:08.692Z,6324.00
2019-02-28T04:56:11.579Z,6172.00
2019-02-28T04:57:08.674Z,6008.00
2019-02-28T04:58:08.729Z,5876.00
2019-02-28T04:59:09.147Z,5788.00
2019-02-28T05:00:08.737Z,5740.00
2019-02-28T05:01:09.250Z,5748.00
2019-02-28T05:02:08.718Z,5844.00
2019-02-28T05:03:08.613Z,5988.00
2019-02-28T05:04:08.695Z,6208.00
2019-02-28T05:05:12.164Z,6440.00
2019-02-28T05:06:08.584Z,6680.00
2019-02-28T05:07:08.572Z,6856.00
2019-02-28T05:08:08.560Z,6968.00
2019-02-28T05:09:10.740Z,7052.00
2019-02-28T05:10:08.632Z,7140.00
2019-02-28T05:11:08.644Z,7228.00
2019-02-28T05:12:08.614Z,7324.00
2019-02-28T05:13:11.366Z,7384.00
2019-02-28T05:14:08.498Z,7436.00
2019-02-28T05:15:08.583Z,7496.00
2019-02-28T05:16:09.384Z,7628.00
2019-02-28T05:17:08.569Z,7832.00
2019-02-28T05:18:08.555Z,7984.00
2019-02-28T05:19:08.540Z,8108.00
2019-02-28T05:20:10.810Z,8292.00
2019-02-28T05:21:08.519Z,8420.00
2019-02-28T05:22:08.510Z,8520.00
2019-02-28T05:23:08.502Z,8552.00
2019-02-28T05:24:08.666Z,8628.00
2019-02-28T05:25:08.384Z,8724.00
2019-02-28T05:26:08.471Z,8696.00
2019-02-28T05:27:08.462Z,8648.00
2019-02-28T05:28:08.449Z,8640.00
2019-02-28T05:29:11.860Z,8584.00
2019-02-28T05:30:08.427Z,8552.00
2019-02-28T05:31:08.718Z,8508.00
2019-02-28T05:32:08.407Z,8440.00
2019-02-28T05:33:08.400Z,8400.00
2019-02-28T05:34:08.388Z,8376.00
2019-02-28T05:35:08.379Z,8348.00
2019-02-28T05:36:08.372Z,8400.00
2019-02-28T05:37:12.137Z,8296.00
2019-02-28T05:38:08.351Z,8260.00
2019-02-28T05:39:08.337Z,8272.00
2019-02-28T05:40:08.328Z,8260.00
2019-02-28T05:41:08.321Z,8280.00
2019-02-28T05:42:08.306Z,8296.00
2019-02-28T05:43:08.297Z,8312.00
2019-02-28T05:44:08.286Z,8288.00
2019-02-28T05:45:08.272Z,8268.00
2019-02-28T05:46:08.368Z,8268.00
2019-02-28T05:47:08.250Z,8276.00
2019-02-28T05:48:08.245Z,8332.00
2019-02-28T05:49:08.995Z,8288.00
2019-02-28T05:50:08.221Z,8264.00
2019-02-28T05:51:08.216Z,8236.00
2019-02-28T05:52:08.202Z,8212.00
2019-02-28T05:53:09.309Z,8208.00
2019-02-28T05:54:08.179Z,8232.00
2019-02-28T05:55:08.168Z,8272.00
2019-02-28T05:56:08.155Z,8308.00
2019-02-28T05:57:08.914Z,8324.00
2019-02-28T05:58:08.134Z,8312.00
2019-02-28T05:59:08.129Z,8244.00
2019-02-28T06:00:08.360Z,8192.00
2019-02-28T06:01:08.788Z,8136.00
2019-02-28T06:02:08.096Z,8108.00
2019-02-28T06:03:08.081Z,8100.00
2019-02-28T06:04:08.070Z,8048.00
2019-02-28T06:05:11.661Z,7984.00
2019-02-28T06:06:08.146Z,7896.00
2019-02-28T06:07:09.363Z,7808.00
2019-02-28T06:08:08.024Z,7712.00
2019-02-28T06:09:10.407Z,7620.00
2019-02-28T06:10:08.008Z,7564.00
2019-02-28T06:11:07.998Z,7556.00
2019-02-28T06:12:09.545Z,7608.00
2019-02-28T06:13:07.973Z,7688.00
2019-02-28T06:14:07.959Z,7752.00
2019-02-28T06:15:07.949Z,7764.00
2019-02-28T06:16:11.301Z,7728.00
2019-02-28T06:17:07.931Z,7716.00
2019-02-28T06:18:07.921Z,7724.00
2019-02-28T06:19:08.370Z,7732.00
2019-02-28T06:20:07.895Z,7740.00
2019-02-28T06:21:10.008Z,7744.00
2019-02-28T06:22:07.873Z,7748.00
2019-02-28T06:23:09.353Z,7764.00
2019-02-28T06:24:07.850Z,7756.00
2019-02-28T06:25:07.844Z,7776.00
2019-02-28T06:26:07.838Z,7856.00
2019-02-28T06:27:07.822Z,7996.00
2019-02-28T06:28:07.809Z,8192.00
2019-02-28T06:29:07.799Z,8368.00
2019-02-28T06:30:08.754Z,8500.00
2019-02-28T06:31:07.780Z,8544.00
2019-02-28T06:32:07.767Z,8520.00
2019-02-28T06:33:07.758Z,8452.00
2019-02-28T06:34:08.530Z,8408.00
2019-02-28T06:35:07.734Z,8412.00
2019-02-28T06:36:07.719Z,8484.00
2019-02-28T06:37:07.709Z,8616.00
2019-02-28T06:38:07.701Z,8760.00
2019-02-28T06:39:07.690Z,8868.00
2019-02-28T06:40:07.682Z,8956.00
2019-02-28T06:41:08.679Z,8980.00
2019-02-28T06:42:07.655Z,8968.00
2019-02-28T06:43:07.647Z,8944.00
2019-02-28T06:44:07.633Z,8880.00
2019-02-28T06:45:07.625Z,8812.00
2019-02-28T06:46:08.553Z,8776.00
2019-02-28T06:47:07.602Z,8768.00
2019-02-28T06:48:07.588Z,8720.00
2019-02-28T06:49:07.580Z,8648.00
2019-02-28T06:50:07.571Z,8556.00
2019-02-28T06:51:07.556Z,8464.00
2019-02-28T06:52:07.549Z,8376.00
2019-02-28T06:53:07.536Z,8300.00
2019-02-28T06:54:07.795Z,8252.00
2019-02-28T06:55:07.513Z,8272.00
2019-02-28T06:56:07.504Z,8308.00
2019-02-28T06:57:07.500Z,8352.00
2019-02-28T06:58:07.480Z,8428.00
2019-02-28T06:59:07.467Z,8596.00
2019-02-28T07:00:10.350Z,8876.00
2019-02-28T07:01:07.548Z,9180.00
2019-02-28T07:02:08.931Z,9476.00
2019-02-28T07:03:07.428Z,9712.00
2019-02-28T07:04:07.418Z,9840.00
2019-02-28T07:05:07.405Z,9872.00
2019-02-28T07:06:07.395Z,9772.00
2019-02-28T07:07:09.985Z,9596.00
2019-02-28T07:08:07.374Z,9396.00
2019-02-28T07:09:07.464Z,9212.00
2019-02-28T07:10:09.663Z,9032.00
2019-02-28T07:11:07.287Z,8856.00
2019-02-28T07:12:07.334Z,8696.00
2019-02-28T07:13:07.321Z,8564.00
2019-02-28T07:14:12.679Z,8444.00
2019-02-28T07:15:07.299Z,8344.00
2019-02-28T07:16:07.295Z,8296.00
2019-02-28T07:17:07.775Z,8356.00
2019-02-28T07:18:07.265Z,8484.00
2019-02-28T07:19:07.256Z,8656.00
2019-02-28T07:20:07.243Z,8796.00
2019-02-28T07:21:07.863Z,8928.00
2019-02-28T07:22:07.223Z,8964.00
2019-02-28T07:23:07.218Z,8856.00
2019-02-28T07:24:07.203Z,8660.00
2019-02-28T07:25:09.404Z,8456.00
2019-02-28T07:26:07.148Z,8360.00
2019-02-28T07:27:07.173Z,8336.00
2019-02-28T07:28:07.160Z,8308.00
2019-02-28T07:29:11.101Z,8248.00
2019-02-28T07:30:07.140Z,8164.00
2019-02-28T07:31:07.131Z,8020.00
2019-02-28T07:32:07.118Z,7892.00
2019-02-28T07:33:10.626Z,7844.00
2019-02-28T07:34:07.097Z,7900.00
2019-02-28T07:35:07.090Z,7972.00
2019-02-28T07:36:09.463Z,8008.00
2019-02-28T07:37:07.066Z,7988.00
2019-02-28T07:38:07.054Z,7916.00
2019-02-28T07:39:07.046Z,7816.00
2019-02-28T07:40:07.041Z,7728.00
2019-02-28T07:41:07.022Z,7664.00
2019-02-28T07:42:07.016Z,7656.00
2019-02-28T07:43:12.141Z,7692.00
2019-02-28T07:44:08.094Z,7720.00
2019-02-28T07:45:07.285Z,7716.00
2019-02-28T07:46:07.731Z,7680.00
2019-02-28T07:47:06.961Z,7660.00
2019-02-28T07:48:06.953Z,7636.00
2019-02-28T07:49:06.944Z,7592.00
2019-02-28T07:50:07.732Z,7508.00
2019-02-28T07:51:06.924Z,7404.00
2019-02-28T07:52:07.215Z,7304.00
2019-02-28T07:53:08.883Z,7200.00
2019-02-28T07:54:06.891Z,7084.00
2019-02-28T07:55:07.183Z,6984.00
2019-02-28T07:56:07.767Z,6908.00
2019-02-28T07:57:06.859Z,6832.00
2019-02-28T07:58:06.849Z,6768.00
2019-02-28T07:59:06.841Z,6720.00
2019-02-28T08:00:06.833Z,6688.00
2019-02-28T08:01:06.821Z,6680.00
2019-02-28T08:02:07.210Z,6676.00
2019-02-28T08:03:06.795Z,6668.00
2019-02-28T08:04:06.782Z,6636.00
2019-02-28T08:05:06.775Z,6604.00
2019-02-28T08:06:06.765Z,6596.00
2019-02-28T08:07:06.760Z,6616.00
2019-02-28T08:08:06.745Z,6632.00
2019-02-28T08:09:06.735Z,6656.00
2019-02-28T08:10:06.724Z,6700.00
2019-02-28T08:11:06.710Z,6792.00
2019-02-28T08:12:06.703Z,6876.00
2019-02-28T08:13:06.694Z,6940.00
2019-02-28T08:14:09.169Z,7008.00
2019-02-28T08:15:06.651Z,7072.00
2019-02-28T08:16:06.662Z,7116.00
2019-02-28T08:17:09.098Z,7140.00
2019-02-28T08:18:06.644Z,7144.00
2019-02-28T08:19:06.632Z,7120.00
2019-02-28T08:20:06.617Z,7092.00
2019-02-28T08:21:08.729Z,7068.00
2019-02-28T08:22:06.598Z,7028.00
2019-02-28T08:23:06.587Z,6984.00
2019-02-28T08:24:06.582Z,6972.00
2019-02-28T08:25:07.759Z,6996.00
2019-02-28T08:26:06.555Z,7048.00
2019-02-28T08:27:06.556Z,7064.00
2019-02-28T08:28:06.533Z,7048.00
2019-02-28T08:29:07.921Z,7012.00
2019-02-28T08:30:06.513Z,6960.00
2019-02-28T08:31:06.510Z,6904.00
2019-02-28T08:32:07.964Z,6852.00
2019-02-28T08:33:06.486Z,6824.00
2019-02-28T08:34:06.477Z,6800.00
2019-02-28T08:35:06.462Z,6772.00
2019-02-28T08:36:11.578Z,6716.00
2019-02-28T08:37:07.543Z,6636.00
2019-02-28T08:38:06.940Z,6580.00
2019-02-28T08:39:08.871Z,6572.00
2019-02-28T08:40:06.411Z,6628.00
2019-02-28T08:41:06.702Z,6700.00
2019-02-28T08:42:06.393Z,6764.00
2019-02-28T08:43:06.386Z,6804.00
2019-02-28T08:44:06.367Z,6820.00
2019-02-28T08:45:06.363Z,6816.00
2019-02-28T08:46:09.775Z,6788.00
2019-02-28T08:47:06.348Z,6756.00
2019-02-28T08:48:06.329Z,6712.00
2019-02-28T08:49:07.226Z,6692.00
2019-02-28T08:50:06.317Z,6688.00
2019-02-28T08:51:06.298Z,6700.00
2019-02-28T08:52:06.715Z,6740.00
2019-02-28T08:53:06.273Z,6792.00
2019-02-28T08:54:06.264Z,6848.00
2019-02-28T08:55:07.731Z,6912.00
2019-02-28T08:56:06.242Z,6976.00
2019-02-28T08:57:06.237Z,7020.00
2019-02-28T08:58:06.760Z,7024.00
2019-02-28T08:59:11.861Z,6980.00
2019-02-28T09:00:07.410Z,6892.00
2019-02-28T09:01:06.653Z,6764.00
2019-02-28T09:02:06.180Z,6616.00
2019-02-28T09:03:06.180Z,6460.00
2019-02-28T09:04:06.165Z,6308.00
2019-02-28T09:05:06.713Z,6156.00
2019-02-28T09:06:07.430Z,6012.00
2019-02-28T09:07:06.132Z,5880.00
2019-02-28T09:08:06.120Z,5768.00
2019-02-28T09:09:06.113Z,5688.00
2019-02-28T09:10:06.389Z,5660.00
2019-02-28T09:11:06.089Z,5680.00
2019-02-28T09:12:06.080Z,5708.00
2019-02-28T09:13:08.774Z,5720.00
2019-02-28T09:14:06.057Z,5696.00
2019-02-28T09:15:06.048Z,5612.00
2019-02-28T09:16:06.040Z,5468.00
2019-02-28T09:17:06.030Z,5288.00
2019-02-28T09:18:07.329Z,5124.00
2019-02-28T09:19:06.003Z,4984.00
2019-02-28T09:20:07.423Z,4864.00
2019-02-28T09:21:06.174Z,4748.00
2019-02-28T09:22:05.980Z,4640.00
2019-02-28T09:23:06.393Z,4536.00
2019-02-28T09:24:05.952Z,4448.00
2019-02-28T09:25:05.944Z,4384.00
2019-02-28T09:26:05.940Z,4340.00
2019-02-28T09:27:05.924Z,4320.00
2019-02-28T09:28:05.916Z,4300.00
2019-02-28T09:29:05.903Z,4304.00
2019-02-28T09:30:05.892Z,4328.00
2019-02-28T09:31:06.056Z,4372.00
2019-02-28T09:32:05.871Z,4412.00
2019-02-28T09:33:05.863Z,4420.00
2019-02-28T09:34:05.859Z,4388.00
2019-02-28T09:35:11.926Z,4312.00
2019-02-28T09:36:06.944Z,4212.00
2019-02-28T09:37:06.129Z,4128.00
2019-02-28T09:38:08.876Z,4064.00
2019-02-28T09:39:07.207Z,4032.00
2019-02-28T09:40:05.792Z,4016.00
2019-02-28T09:41:05.778Z,4012.00
2019-02-28T09:42:05.835Z,4024.00
2019-02-28T09:43:05.761Z,4048.00
2019-02-28T09:44:07.075Z,4084.00
2019-02-28T09:45:07.680Z,4116.00
2019-02-28T09:46:05.729Z,4140.00
2019-02-28T09:47:05.726Z,4164.00
2019-02-28T09:48:05.707Z,4188.00
2019-02-28T09:49:05.849Z,4204.00
2019-02-28T09:50:05.688Z,4216.00
2019-02-28T09:51:05.679Z,4212.00
2019-02-28T09:52:06.305Z,4196.00
2019-02-28T09:53:05.658Z,4176.00
2019-02-28T09:54:05.648Z,4144.00
2019-02-28T09:55:05.940Z,4112.00
2019-02-28T09:56:08.894Z,4076.00
2019-02-28T09:57:05.611Z,4032.00
2019-02-28T09:58:05.703Z,3976.00
2019-02-28T09:59:05.692Z,3908.00
2019-02-28T10:00:05.583Z,3832.00
2019-02-28T10:01:05.566Z,3744.00
2019-02-28T10:02:08.472Z,3656.00
2019-02-28T10:03:06.821Z,3572.00
2019-02-28T10:04:05.725Z,3504.00
2019-02-28T10:05:06.576Z,3448.00
2019-02-28T10:06:05.707Z,3392.00
2019-02-28T10:07:05.510Z,3344.00
2019-02-28T10:08:07.063Z,3296.00
2019-02-28T10:09:08.791Z,3244.00
2019-02-28T10:10:05.475Z,3204.00
2019-02-28T10:11:05.465Z,3156.00
2019-02-28T10:12:07.827Z,3120.00
2019-02-28T10:13:05.445Z,3092.00
2019-02-28T10:14:05.436Z,3064.00
2019-02-28T10:15:07.283Z,3040.00
2019-02-28T10:16:05.601Z,3016.00
2019-02-28T10:17:05.400Z,2996.00
2019-02-28T10:18:05.417Z,2984.00
2019-02-28T10:19:05.378Z,2968.00
2019-02-28T10:20:05.371Z,2948.00
2019-02-28T10:21:05.363Z,2908.00
2019-02-28T10:22:05.335Z,2848.00
2019-02-28T10:23:05.635Z,2764.00
2019-02-28T10:24:05.326Z,2672.00
2019-02-28T10:25:06.520Z,2580.00
2019-02-28T10:26:05.311Z,2492.00
2019-02-28T10:27:05.296Z,2424.00
2019-02-28T10:28:05.582Z,2368.00
2019-02-28T10:29:07.562Z,2324.00
2019-02-28T10:30:05.257Z,2292.00
2019-02-28T10:31:05.244Z,2268.00
2019-02-28T10:32:06.133Z,2264.00
2019-02-28T10:33:05.224Z,2276.00
2019-02-28T10:34:05.217Z,2288.00
2019-02-28T10:35:05.196Z,2292.00
2019-02-28T10:36:05.189Z,2272.00
2019-02-28T10:37:05.187Z,2244.00
2019-02-28T10:38:05.165Z,2192.00
2019-02-28T10:39:05.874Z,2148.00
2019-02-28T10:40:05.197Z,2104.00
2019-02-28T10:41:05.137Z,2076.00
2019-02-28T10:42:06.097Z,2048.00
2019-02-28T10:43:05.116Z,2036.00
2019-02-28T10:44:05.102Z,2028.00
2019-02-28T10:45:06.538Z,2020.00
2019-02-28T10:46:05.082Z,2016.00
2019-02-28T10:47:05.070Z,2004.00
2019-02-28T10:48:05.060Z,1984.00
2019-02-28T10:49:04.968Z,1960.00
2019-02-28T10:50:05.044Z,1940.00
2019-02-28T10:51:12.847Z,1928.00
2019-02-28T10:52:06.127Z,1916.00
2019-02-28T10:53:06.028Z,1904.00
2019-02-28T10:54:05.000Z,1892.00
2019-02-28T10:55:04.984Z,1876.00
2019-02-28T10:56:05.163Z,1856.00
2019-02-28T10:57:05.940Z,1836.00
2019-02-28T10:58:05.147Z,1816.00
2019-02-28T10:59:05.519Z,1800.00
2019-02-28T11:00:05.245Z,1792.00
2019-02-28T11:01:08.667Z,1780.00
2019-02-28T11:02:04.914Z,1772.00
2019-02-28T11:03:04.919Z,1760.00
2019-02-28T11:04:07.434Z,1740.00
2019-02-28T11:05:04.882Z,1720.00
2019-02-28T11:06:04.874Z,1688.00
2019-02-28T11:07:04.885Z,1660.00
2019-02-28T11:08:04.852Z,1632.00
2019-02-28T11:09:04.836Z,1612.00
2019-02-28T11:10:04.828Z,1584.00
2019-02-28T11:11:07.311Z,1560.00
2019-02-28T11:12:04.808Z,1540.00
2019-02-28T11:13:04.800Z,1532.00
2019-02-28T11:14:05.012Z,1540.00
2019-02-28T11:15:04.788Z,1548.00
2019-02-28T11:16:04.772Z,1560.00
2019-02-28T11:17:08.843Z,1580.00
2019-02-28T11:18:09.752Z,1600.00
2019-02-28T11:19:04.739Z,1620.00
2019-02-28T11:20:04.731Z,1656.00
2019-02-28T11:21:04.714Z,1700.00
2019-02-28T11:22:05.740Z,1744.00
2019-02-28T11:23:04.695Z,1804.00
2019-02-28T11:24:04.690Z,1872.00
2019-02-28T11:25:04.673Z,1952.00
2019-02-28T11:26:06.405Z,2052.00
2019-02-28T11:27:04.658Z,2144.00
2019-02-28T11:28:04.645Z,2196.00
2019-02-28T11:29:04.638Z,2192.00
2019-02-28T11:30:07.381Z,2132.00
2019-02-28T11:31:04.915Z,2048.00
2019-02-28T11:32:04.604Z,1948.00
2019-02-28T11:33:04.796Z,1868.00
2019-02-28T11:34:04.578Z,1804.00
2019-02-28T11:35:04.566Z,1752.00
2019-02-28T11:36:04.557Z,1720.00
2019-02-28T11:37:08.583Z,1704.00
2019-02-28T11:38:05.063Z,1688.00
2019-02-28T11:39:04.524Z,1660.00
2019-02-28T11:40:05.489Z,1620.00
2019-02-28T11:41:04.508Z,1564.00
2019-02-28T11:42:04.506Z,1504.00
2019-02-28T11:43:04.491Z,1440.00
2019-02-28T11:44:04.474Z,1384.00
2019-02-28T11:45:04.466Z,1324.00
2019-02-28T11:46:04.459Z,1276.00
2019-02-28T11:47:04.448Z,1228.00
2019-02-28T11:48:04.436Z,1176.00
2019-02-28T11:49:04.426Z,1136.00
2019-02-28T11:50:07.587Z,1104.00
2019-02-28T11:51:04.407Z,1084.00
2019-02-28T11:52:04.392Z,1072.00
2019-02-28T11:53:05.891Z,1056.00
2019-02-28T11:54:04.371Z,1044.00
2019-02-28T11:55:04.364Z,1044.00
2019-02-28T11:56:04.354Z,1040.00
2019-02-28T11:57:06.739Z,1028.00
2019-02-28T11:58:04.330Z,1012.00
2019-02-28T11:59:04.319Z,996.00
2019-02-28T12:00:04.662Z,964.00
2019-02-28T12:01:04.303Z,936.00
2019-02-28T12:02:04.294Z,900.00
2019-02-28T12:03:05.574Z,860.00
2019-02-28T12:04:04.414Z,816.00
2019-02-28T12:05:04.259Z,780.00
2019-02-28T12:06:04.246Z,760.00
2019-02-28T12:07:04.235Z,748.00
2019-02-28T12:08:09.019Z,752.00
2019-02-28T12:09:05.316Z,768.00
2019-02-28T12:10:04.204Z,792.00
2019-02-28T12:11:04.192Z,824.00
2019-02-28T12:12:04.187Z,856.00
2019-02-28T12:13:04.175Z,884.00
2019-02-28T12:14:06.210Z,908.00
2019-02-28T12:15:06.104Z,928.00
2019-02-28T12:16:04.146Z,936.00
2019-02-28T12:17:04.129Z,932.00
2019-02-28T12:18:04.920Z,912.00
2019-02-28T12:19:04.113Z,876.00
2019-02-28T12:20:04.103Z,836.00
2019-02-28T12:21:04.996Z,780.00
2019-02-28T12:22:04.082Z,724.00
2019-02-28T12:23:04.069Z,676.00
2019-02-28T12:24:04.060Z,620.00
2019-02-28T12:25:04.538Z,584.00
2019-02-28T12:26:04.038Z,552.00
2019-02-28T12:27:04.184Z,520.00
2019-02-28T12:28:06.521Z,500.00
2019-02-28T12:29:04.006Z,480.00
2019-02-28T12:30:03.998Z,468.00
2019-02-28T12:31:03.986Z,456.00
2019-02-28T12:32:03.977Z,444.00
2019-02-28T12:33:03.964Z,440.00
2019-02-28T12:34:03.960Z,440.00
2019-02-28T12:35:03.946Z,448.00
2019-02-28T12:36:03.930Z,448.00
2019-02-28T12:37:03.923Z,452.00
2019-02-28T12:38:03.915Z,456.00
2019-02-28T12:39:03.908Z,456.00
2019-02-28T12:40:03.894Z,456.00
2019-02-28T12:41:03.879Z,456.00
2019-02-28T12:42:03.871Z,464.00
2019-02-28T12:43:05.366Z,472.00
2019-02-28T12:44:03.849Z,484.00
2019-02-28T12:45:03.839Z,488.00
2019-02-28T12:46:03.826Z,480.00
2019-02-28T12:47:06.447Z,464.00
2019-02-28T12:48:03.804Z,444.00
2019-02-28T12:49:03.793Z,428.00
2019-02-28T12:50:03.782Z,412.00
2019-02-28T12:51:05.334Z,396.00
2019-02-28T12:52:03.772Z,384.00
2019-02-28T12:53:03.752Z,368.00
2019-02-28T12:54:03.737Z,348.00
2019-02-28T12:55:04.780Z,332.00
2019-02-28T12:56:03.715Z,308.00
2019-02-28T12:57:03.705Z,284.00
2019-02-28T12:58:03.696Z,256.00
2019-02-28T12:59:03.689Z,228.00
2019-02-28T13:00:03.679Z,204.00
2019-02-28T13:01:04.066Z,180.00
2019-02-28T13:02:07.164Z,160.00
2019-02-28T13:03:03.642Z,140.00
2019-02-28T13:04:03.631Z,128.00
2019-02-28T13:05:03.626Z,116.00
2019-02-28T13:06:03.608Z,108.00
2019-02-28T13:07:03.600Z,104.00
2019-02-28T13:08:05.730Z,100.00
2019-02-28T13:09:03.677Z,92.00
2019-02-28T13:10:04.086Z,84.00
2019-02-28T13:11:04.698Z,76.00
2019-02-28T13:12:03.546Z,68.00
2019-02-28T13:13:07.034Z,56.00
2019-02-28T13:14:06.152Z,48.00
2019-02-28T13:15:03.517Z,44.00
2019-02-28T13:16:03.502Z,40.00
2019-02-28T13:17:03.491Z,32.00
2019-02-28T13:18:07.176Z,32.00
2019-02-28T13:19:03.472Z,28.00
2019-02-28T13:20:03.466Z,24.00
2019-02-28T13:21:06.272Z,20.00
2019-02-28T13:22:04.555Z,16.00
2019-02-28T13:23:03.426Z,16.00
2019-02-28T13:24:05.984Z,12.00
2019-02-28T13:25:04.508Z,12.00
2019-02-28T13:26:03.403Z,8.00
2019-02-28T13:27:05.577Z,8.00
2019-02-28T13:28:04.481Z,4.00
2019-02-28T13:29:03.364Z,8.00
2019-02-28T13:30:05.392Z,4.00
2019-02-28T13:32:03.328Z,4.00
2019-02-28T13:33:03.321Z,4.00
2019-02-28T14:36:02.647Z,0.00
2019-02-28T14:37:02.749Z,0.00
2019-02-28T14:38:02.610Z,0.00